Map

Track Data

SID SEASON NUMBER BASIN SUBBASIN NAME ISO_TIME NATURE LAT LON WMO_WIND WMO_PRES WMO_AGENCY TRACK_TYPE DIST2LAND LANDFALL IFLAG USA_AGENCY USA_ATCF_ID USA_LAT USA_LON USA_RECORD USA_STATUS USA_WIND USA_PRES USA_SSHS USA_R34_NE USA_R34_SE USA_R34_SW USA_R34_NW USA_R50_NE USA_R50_SE USA_R50_SW USA_R50_NW USA_R64_NE USA_R64_SE USA_R64_SW USA_R64_NW USA_POCI USA_ROCI USA_RMW USA_EYE TOKYO_LAT TOKYO_LON TOKYO_GRADE TOKYO_WIND TOKYO_PRES TOKYO_R50_DIR TOKYO_R50_LONG TOKYO_R50_SHORT TOKYO_R30_DIR TOKYO_R30_LONG TOKYO_R30_SHORT TOKYO_LAND CMA_LAT CMA_LON CMA_CAT CMA_WIND CMA_PRES HKO_LAT HKO_LON HKO_CAT HKO_WIND HKO_PRES NEWDELHI_LAT NEWDELHI_LON NEWDELHI_GRADE NEWDELHI_WIND NEWDELHI_PRES NEWDELHI_CI NEWDELHI_DP NEWDELHI_POCI REUNION_LAT REUNION_LON REUNION_TYPE REUNION_WIND REUNION_PRES REUNION_TNUM REUNION_CI REUNION_RMW REUNION_R34_NE REUNION_R34_SE REUNION_R34_SW REUNION_R34_NW REUNION_R50_NE REUNION_R50_SE REUNION_R50_SW REUNION_R50_NW REUNION_R64_NE REUNION_R64_SE REUNION_R64_SW REUNION_R64_NW BOM_LAT BOM_LON BOM_TYPE BOM_WIND BOM_PRES BOM_TNUM BOM_CI BOM_RMW BOM_R34_NE BOM_R34_SE BOM_R34_SW BOM_R34_NW BOM_R50_NE BOM_R50_SE BOM_R50_SW BOM_R50_NW BOM_R64_NE BOM_R64_SE BOM_R64_SW BOM_R64_NW BOM_ROCI BOM_POCI BOM_EYE BOM_POS_METHOD BOM_PRES_METHOD NADI_LAT NADI_LON NADI_CAT NADI_WIND NADI_PRES WELLINGTON_LAT WELLINGTON_LON WELLINGTON_WIND WELLINGTON_PRES DS824_LAT DS824_LON DS824_STAGE DS824_WIND DS824_PRES TD9636_LAT TD9636_LON TD9636_STAGE TD9636_WIND TD9636_PRES TD9635_LAT TD9635_LON TD9635_WIND TD9635_PRES TD9635_ROCI NEUMANN_LAT NEUMANN_LON NEUMANN_CLASS NEUMANN_WIND NEUMANN_PRES MLC_LAT MLC_LON MLC_CLASS MLC_WIND MLC_PRES USA_GUST BOM_GUST BOM_GUST_PER REUNION_GUST REUNION_GUST_PER USA_SEAHGT USA_SEARAD_NE USA_SEARAD_SE USA_SEARAD_SW USA_SEARAD_NW STORM_SPEED STORM_DIR
1913060S16426 1913 22 SI MM NOT_NAMED 1913-02-28 18:00:00 NR -16.3000 65.9000 spur-merge 964 944 __________O___ -1 -16.3000 65.9000 7 5 194
1913060S16426 1913 22 SI MM NOT_NAMED 1913-02-28 21:00:00 NR -16.5547 65.8251 spur-merge 939 929 __________P___ -1 -16.5547 65.8251 7 5 196
1913060S16426 1913 22 SI MM NOT_NAMED 1913-03-01 00:00:00 NR -16.8075 65.7502 spur-merge 929 910 __________P___ -1 -16.8075 65.7502 7 5 196
1913060S16426 1913 22 SI MM NOT_NAMED 1913-03-01 03:00:00 NR -17.0566 65.6751 spur-merge 905 886 __________P___ -1 -17.0566 65.6751 7 5 196
1913060S16426 1913 22 SI MM NOT_NAMED 1913-03-01 06:00:00 NR -17.3000 65.6000 spur-merge 886 868 __________O___ -1 -17.3000 65.6000 7 5 197
1913060S16426 1913 22 SI MM NOT_NAMED 1913-03-01 09:00:00 NR -17.5362 65.5249 spur-merge 868 856 __________P___ -1 -17.5362 65.5249 7 5 197
1913060S16426 1913 22 SI MM NOT_NAMED 1913-03-01 12:00:00 NR -17.7650 65.4499 spur-merge 846 838 __________P___ -1 -17.7650 65.4499 7 5 197
1913060S16426 1913 22 SI MM NOT_NAMED 1913-03-01 15:00:00 NR -17.9862 65.3750 spur-merge 838 821 __________P___ -1 -17.9862 65.3750 7 5 198
1913060S16426 1913 22 SI MM NOT_NAMED 1913-03-01 18:00:00 NR -18.2000 65.3000 spur-merge 821 804 __________O___ -1 -18.2000 65.3000 7 5 199
1913060S16426 1913 22 SI MM NOT_NAMED 1913-03-01 21:00:00 NR -18.4153 65.2250 spur-merge 804 798 __________P___ -1 -18.4153 65.2250 7 4 199
1913060S16426 1913 22 SI MM NOT_NAMED 1913-03-02 00:00:00 NR -18.6225 65.1500 spur-merge 788 783 __________P___ -1 -18.6225 65.1500 7 4 200
1913060S16426 1913 22 SI MM NOT_NAMED 1913-03-02 03:00:00 NR -18.8184 65.0750 spur-merge 783 767 __________P___ -1 -18.8184 65.0750 7 4 201
1913060S16426 1913 22 SI MM NOT_NAMED 1913-03-02 06:00:00 NR -19.0000 65.0000 spur-merge 767 753 __________O___ -1 -19.0000 65.0000 7 4 201
1913060S16426 1913 22 SI MM NOT_NAMED 1913-03-02 09:00:00 NR -19.1684 64.9330 spur-merge 753 751 __________P___ -1 -19.1684 64.9330 7 3 201
1913060S16426 1913 22 SI MM NOT_NAMED 1913-03-02 12:00:00 NR -19.3224 64.8649 spur-merge 751 737 __________P___ -1 -19.3224 64.8649 7 3 205
1913060S16426 1913 22 SI MM NOT_NAMED 1913-03-02 15:00:00 NR -19.4653 64.7893 spur-merge 737 725 __________P___ -1 -19.4653 64.7893 7 3 209
1913060S16426 1913 22 SI MM NOT_NAMED 1913-03-02 18:00:00 NR -19.6000 64.7000 spur-merge 725 713 __________O___ -1 -19.6000 64.7000 7 3 211
1913060S16426 1913 22 SI MM NOT_NAMED 1913-03-02 21:00:00 NR -19.7320 64.6176 spur-merge 713 700 __________P___ -1 -19.7320 64.6176 7 3 214
1913060S16426 1913 22 SI MM NOT_NAMED 1913-03-03 00:00:00 NR -19.8572 64.5172 spur-merge 700 689 __________P___ -1 -19.8572 64.5172 7 3 222
1913060S16426 1913 22 SI MM NOT_NAMED 1913-03-03 03:00:00 NR -19.9788 64.3832 spur-merge 689 668 __________P___ -1 -19.9788 64.3832 7 4 231
1913060S16426 1913 22 SI MM NOT_NAMED 1913-03-03 06:00:00 NR -20.1000 64.2000 spur-merge 668 646 __________O___ -1 -20.1000 64.2000 7 5 237
1913060S16426 1913 22 SI MM NOT_NAMED 1913-03-03 09:00:00 NR -20.2373 63.9546 spur-merge 646 615 __________P___ -1 -20.2373 63.9546 7 6 242
1913060S16426 1913 22 SI MM NOT_NAMED 1913-03-03 12:00:00 NR -20.3726 63.6603 spur-merge 615 583 __________P___ -1 -20.3726 63.6603 7 6 246
1913060S16426 1913 22 SI MM NOT_NAMED 1913-03-03 15:00:00 NR -20.4966 63.3358 spur-merge 573 542 __________P___ -1 -20.4966 63.3358 7 7 250
1913060S16426 1913 22 SI MM NOT_NAMED 1913-03-03 18:00:00 NR -20.6000 63.0000 spur-merge 542 512 __________O___ -1 -20.6000 63.0000 7 6 253
1913060S16426 1913 22 SI MM NOT_NAMED 1913-03-03 21:00:00 NR -20.6711 62.7062 spur-merge 512 481 __________P___ -1 -20.6711 62.7062 7 6 258
1913060S16426 1913 22 SI MM NOT_NAMED 1913-03-04 00:00:00 NR -20.7217 62.4020 spur-merge 481 451 __________P___ -1 -20.7217 62.4020 7 6 261
1913060S16426 1913 22 SI MM NOT_NAMED 1913-03-04 03:00:00 NR -20.7616 62.0719 spur-merge 451 409 __________P___ -1 -20.7616 62.0719 7 7 263
1913060S16426 1913 22 SI MM NOT_NAMED 1913-03-04 06:00:00 NR -20.8000 61.7000 spur-merge 409 368 __________O___ -1 -20.8000 61.7000 7 8 263
1913060S16426 1913 22 SI MM NOT_NAMED 1913-03-04 09:00:00 NR -20.8545 61.2520 spur-merge 370 319 __________P___ -1 -20.8545 61.2520 7 9 263
1913060S16426 1913 22 SI MM NOT_NAMED 1913-03-04 12:00:00 NR -20.9081 60.7651 spur-merge 319 271 __________P___ -1 -20.9081 60.7651 7 9 264
1913060S16426 1913 22 SI MM NOT_NAMED 1913-03-04 15:00:00 NR -20.9576 60.2707 spur-merge 271 222 __________P___ -1 -20.9576 60.2707 7 9 264
1913060S16426 1913 22 SI MM NOT_NAMED 1913-03-04 18:00:00 NR -21.0000 59.8000 spur-merge 222 183 __________O___ -1 -21.0000 59.8000 7 8 265
1913060S16426 1913 22 SI MM NOT_NAMED 1913-03-04 21:00:00 NR -21.0318 59.3799 spur-merge 183 150 __________P___ -1 -21.0318 59.3799 7 8 266
1913060S16426 1913 22 SI MM NOT_NAMED 1913-03-05 00:00:00 NR -21.0571 58.9899 spur-merge 150 115 __________P___ -1 -21.0571 58.9899 7 7 266
1913060S16426 1913 22 SI MM NOT_NAMED 1913-03-05 03:00:00 NR -21.0788 58.6299 spur-merge 115 91 __________P___ -1 -21.0788 58.6299 7 6 266
1913060S16426 1913 22 SI MM NOT_NAMED 1913-03-05 06:00:00 NR -21.1000 58.3000 spur-merge 91 73 __________O___ -1 -21.1000 58.3000 7 6 266
1913060S16426 1913 22 SI MM NOT_NAMED 1913-03-05 09:00:00 NR -21.1247 57.9881 spur-merge 73 67 __________P___ -1 -21.1247 57.9881 7 6 265
1913060S16426 1913 22 SI MM NOT_NAMED 1913-03-05 12:00:00 NR -21.1496 57.7050 spur-merge 67 67 __________P___ -1 -21.1496 57.7050 7 5 264
1913060S16426 1913 22 SI MM NOT_NAMED 1913-03-05 15:00:00 NR -21.1748 57.4444 spur-merge 78 78 __________P___ -1 -21.1748 57.4444 7 5 264
1913060S16426 1913 22 SI MM NOT_NAMED 1913-03-05 18:00:00 NR -21.2000 57.2000 spur-merge 78 78 __________O___ -1 -21.2000 57.2000 7 4 265
1913060S16426 1913 22 SI MM NOT_NAMED 1913-03-05 21:00:00 NR -21.2166 56.9686 spur-merge 84 84 __________P___ -1 -21.2166 56.9686 7 4 265
1913060S16426 1913 22 SI MM NOT_NAMED 1913-03-06 00:00:00 NR -21.2346 56.7498 spur-merge 93 72 __________P___ -1 -21.2346 56.7498 7 4 264
1913060S16426 1913 22 SI MM NOT_NAMED 1913-03-06 03:00:00 NR -21.2604 56.5311 spur-merge 72 51 __________P___ -1 -21.2604 56.5311 7 4 261
1913060S16426 1913 22 SI MM NOT_NAMED 1913-03-06 06:00:00 NR -21.3000 56.3000 spur-merge 51 31 __________O___ -1 -21.3000 56.3000 7 5 257
1913060S16426 1913 22 SI MM NOT_NAMED 1913-03-06 09:00:00 NR -21.3647 56.0395 spur-merge 23 11 __________P___ -1 -21.3647 56.0395 7 5 254
1913060S16426 1913 22 SI MM NOT_NAMED 1913-03-06 12:00:00 NR -21.4425 55.7652 spur-merge 11 10 __________P___ -1 -21.4425 55.7652 7 5 253
1913060S16426 1913 22 SI MM NOT_NAMED 1913-03-06 15:00:00 NR -21.5240 55.4832 spur-merge 15 15 __________P___ -1 -21.5240 55.4832 7 5 253
1913060S16426 1913 22 SI MM NOT_NAMED 1913-03-06 18:00:00 NR -21.6000 55.2000 spur-merge 35 35 __________O___ -1 -21.6000 55.2000 7 5 256
1913060S16426 1913 22 SI MM NOT_NAMED 1913-03-06 21:00:00 NR -21.6488 54.9329 spur-merge 53 53 __________P___ -1 -21.6488 54.9329 7 5 259
1913060S16426 1913 22 SI MM NOT_NAMED 1913-03-07 00:00:00 NR -21.6922 54.6646 spur-merge 76 76 __________P___ -1 -21.6922 54.6646 7 5 260
1913060S16426 1913 22 SI MM NOT_NAMED 1913-03-07 03:00:00 NR -21.7394 54.3891 spur-merge 103 103 __________P___ -1 -21.7394 54.3891 7 5 258
1913060S16426 1913 22 SI MM NOT_NAMED 1913-03-07 06:00:00 NR -21.8000 54.1000 spur-merge 136 136 __________O___ -1 -21.8000 54.1000 7 6 256
1913060S16426 1913 22 SI MM NOT_NAMED 1913-03-07 09:00:00 NR -21.8816 53.7853 spur-merge 168 168 __________P___ -1 -21.8816 53.7853 7 6 253
1913060S16426 1913 22 SI MM NOT_NAMED 1913-03-07 12:00:00 NR -21.9775 53.4575 spur-merge 201 201 __________P___ -1 -21.9775 53.4575 7 6 252
1913060S16426 1913 22 SI MM NOT_NAMED 1913-03-07 15:00:00 NR -22.0847 53.1259 spur-merge 244 244 __________P___ -1 -22.0847 53.1259 7 6 250
1913060S16426 1913 22 SI MM NOT_NAMED 1913-03-07 18:00:00 NR -22.2000 52.8000 spur-merge 276 276 __________O___ -1 -22.2000 52.8000 7 6 248
1913060S16426 1913 22 SI MM NOT_NAMED 1913-03-07 21:00:00 NR -22.3217 52.4847 spur-merge 309 309 __________P___ -1 -22.3217 52.4847 7 6 247
1913060S16426 1913 22 SI MM NOT_NAMED 1913-03-08 00:00:00 NR -22.4498 52.1775 spur-merge 342 342 __________P___ -1 -22.4498 52.1775 7 6 245
1913060S16426 1913 22 SI MM NOT_NAMED 1913-03-08 03:00:00 NR -22.5780 51.8816 spur-merge 379 363 __________P___ -1 -22.5780 51.8816 7 6 245
1913060S16426 1913 22 SI MM NOT_NAMED 1913-03-08 06:00:00 NR -22.7000 51.6000 spur-merge 363 337 __________O___ -1 -22.7000 51.6000 7 5 247
1913060S16426 1913 22 SI MM NOT_NAMED 1913-03-08 09:00:00 NR -22.7948 51.3352 spur-merge 337 322 __________P___ -1 -22.7948 51.3352 7 5 249
1913060S16426 1913 22 SI MM NOT_NAMED 1913-03-08 12:00:00 NR -22.8847 51.0844 spur-merge 322 303 __________P___ -1 -22.8847 51.0844 7 5 248
1913060S16426 1913 22 SI MM NOT_NAMED 1913-03-08 15:00:00 NR -22.9823 50.8415 spur-merge 298 284 __________P___ -1 -22.9823 50.8415 7 5 244
1913060S16426 1913 22 SI MM NOT_NAMED 1913-03-08 18:00:00 NR -23.1000 50.6000 spur-merge 284 259 __________O___ -1 -23.1000 50.6000 7 6 239
1913060S16426 1913 22 SI MM NOT_NAMED 1913-03-08 21:00:00 NR -23.2657 50.3260 spur-merge 259 241 __________P___ -1 -23.2657 50.3260 7 6 235
1913060S16426 1913 22 SI MM NOT_NAMED 1913-03-09 00:00:00 NR -23.4502 50.0555 spur-merge 244 215 __________P___ -1 -23.4502 50.0555 7 6 232
1913060S16426 1913 22 SI MM NOT_NAMED 1913-03-09 03:00:00 NR -23.6345 49.8072 spur-merge 215 198 __________P___ -1 -23.6345 49.8072 7 5 230
1913060S16426 1913 22 SI MM NOT_NAMED 1913-03-09 06:00:00 NR -23.8000 49.6000 spur-merge 198 188 __________O___ -1 -23.8000 49.6000 7 4 229
1913060S16426 1913 22 SI MM NOT_NAMED 1913-03-09 09:00:00 NR -23.9173 49.4484 spur-merge 181 176 __________P___ -1 -23.9173 49.4484 7 3 228
1913060S16426 1913 22 SI MM NOT_NAMED 1913-03-09 12:00:00 NR -24.0147 49.3396 spur-merge 176 176 __________P___ -1 -24.0147 49.3396 7 3 222
1913060S16426 1913 22 SI MM NOT_NAMED 1913-03-09 15:00:00 NR -24.1049 49.2610 spur-merge 180 171 __________P___ -1 -24.1049 49.2610 7 2 214
1913060S16426 1913 22 SI MM NOT_NAMED 1913-03-09 18:00:00 NR -24.2000 49.2000 spur-merge 173 165 __________O___ -1 -24.2000 49.2000 7 2 207
1913060S16426 1913 22 SI MM NOT_NAMED 1913-03-09 21:00:00 NR -24.3098 49.1458 spur-merge 165 165 __________P___ -1 -24.3098 49.1458 7 3 203
1913060S16426 1913 22 SI MM NOT_NAMED 1913-03-10 00:00:00 NR -24.4326 49.0952 spur-merge 168 166 __________P___ -1 -24.4326 49.0952 7 3 199
1913060S16426 1913 22 SI MM NOT_NAMED 1913-03-10 03:00:00 NR -24.5641 49.0470 spur-merge 166 166 __________P___ -1 -24.5641 49.0470 7 3 199
1913060S16426 1913 22 SI MM NOT_NAMED 1913-03-10 06:00:00 NR -24.7000 49.0000 spur-merge 170 __________O___ -1 -24.7000 49.0000 7 3 198

About IBTrACS Database

This database is a web-friendly format of International Best Track Archive for Climate Stewardship (IBTrACS), a global best track data archive curated by NOAA dating back to 1842.

Updated: 2021-11-26